WetterOnline ( http://www.wetteronline.de )

Wetter aktuell Boock

Aktuelles Wetter: Seehausen (23m)

6-stündlich | Neueste Meldungen
Ortszeit Temperatur Wetter
Sa, 25.03. 7:00 0.6° C wolkig
Sa, 25.03. 1:00 -0.3° C fast wolkenlos
Fr, 24.03. 19:00 7.8° C wolkenlos
Fr, 24.03. 13:00 11.9° C leicht bewölkt
Ortszeit Temperatur Wetter
Sa, 25.03. 12:30 11.4° C wolkig
Sa, 25.03. 12:00 10.6° C wolkig
Sa, 25.03. 11:30 10.7° C leicht bewölkt
Sa, 25.03. 11:00 9.4° C leicht bewölkt
Sa, 25.03. 10:30 8.6° C wolkig
Sa, 25.03. 10:00 7.4° C leicht bewölkt
Ortszeit Relative Feuchte Sichtweite
Sa, 25.03. 7:00 87% 16 km
Sa, 25.03. 1:00 88% 35 km
Fr, 24.03. 19:00 67% 55 km
Fr, 24.03. 13:00 38% 30 km
Ortszeit Relative Feuchte Sichtweite
Sa, 25.03. 12:30 43% 13 km
Sa, 25.03. 12:00 37% 16 km
Sa, 25.03. 11:30 38% 10 km
Sa, 25.03. 11:00 33% 20 km
Sa, 25.03. 10:30 35% 21 km
Sa, 25.03. 10:00 40% 9 km
Ortszeit Niederschlagsmenge Niederschlagsart
Sa, 25.03. 7:00 0,0 l/m2 in 12 Std. -
Sa, 25.03. 1:00 0,0 l/m2 in 6 Std. -
Fr, 24.03. 19:00 0,0 l/m2 in 12 Std. -
Fr, 24.03. 13:00 0,0 l/m2 in 6 Std. -
Ortszeit Niederschlagsmenge Niederschlagsart
Sa, 25.03. 12:30 keine Meldung -
Sa, 25.03. 12:00 0,0 l/m2 in 1 Std. -
Sa, 25.03. 11:30 keine Meldung -
Sa, 25.03. 11:00 0,0 l/m2 in 1 Std. -
Sa, 25.03. 10:30 keine Meldung -
Sa, 25.03. 10:00 0,0 l/m2 in 1 Std. -
Ortszeit Stärke Spitze Richtung
km/h Bft. km/h Grad Sektor
Sa, 25.03. 7:00 7 2 18 260° W
Sa, 25.03. 1:00 2 1 6 220° SW
Fr, 24.03. 19:00 4 1 22 360° N
Fr, 24.03. 13:00 11 2 22 120° SO
Ortszeit Stärke Spitze Richtung
km/h Bft. km/h Grad Sektor
Sa, 25.03. 12:30 20 4 31 300° NW
Sa, 25.03. 12:00 17 3 31 300° NW
Sa, 25.03. 11:30 22 4 32 330° NW
Sa, 25.03. 11:00 14 3 25 310° NW
Sa, 25.03. 10:30 14 3 22 300° NW
Sa, 25.03. 10:00 18 3 25 300° NW
Ortszeit Untergrenze Bedeckung Gattung
total tief tief mittel hoch
Sa, 25.03. 7:00 7200 m 8/8 0/8 - - -
Sa, 25.03. 1:00 8700 m 1/8 0/8 - - -
Fr, 24.03. 19:00 - 0/8 0/8 - - -
Fr, 24.03. 13:00 1500 m 2/8 1/8 - - -
Ortszeit Bedeckungsgrad in Achtel und Wolkenuntergrenze
Sa, 25.03. 12:30 4(6300m) 5(10500m)
Sa, 25.03. 12:00 5(6300m) 6(10500m)
Sa, 25.03. 11:30 4(10500m) 5(12000m)
Sa, 25.03. 11:00 5(10500m)
Sa, 25.03. 10:30 1(8400m) 7(10500m)
Sa, 25.03. 10:00 1(6600m) 7(10500m)
Ortszeit Luftdruck NN (hPa) Tendenz (hPa in 3 Std.)
Sa, 25.03. 7:00 1032 - 0,6
Sa, 25.03. 1:00 1033 - 0,3
Fr, 24.03. 19:00 1032 + 0,2
Fr, 24.03. 13:00 1032 + 0,7
Ortszeit Luftdruck NN (hPa) Tendenz (hPa in 3 Std.)
Sa, 25.03. 12:30 1030 - 1,2
Sa, 25.03. 12:00 1030 - 1,4
Sa, 25.03. 11:30 1031 - 1,1
Sa, 25.03. 11:00 1031 - 1,0
Sa, 25.03. 10:30 1031 - 0,6
Sa, 25.03. 10:00 1031 - 0,3
Ortszeit Schneehöhe (cm)
Sa, 25.03. 7:00 -
Sa, 25.03. 1:00 -
Fr, 24.03. 19:00 -
Fr, 24.03. 13:00 -
Ortszeit Schneehöhe (cm)
Sa, 25.03. 12:30 -
Sa, 25.03. 12:00 -
Sa, 25.03. 11:30 -
Sa, 25.03. 11:00 -
Sa, 25.03. 10:30 -
Sa, 25.03. 10:00 -
Link zu dieser Seite / Seite empfehlen

Das Wetter in ...